Time;durP1;ratioP1;P1;durP2;ratioP2;P2;SDS_P1;SDS_P2;PMS_P1;PMS_P2;Temp;Humidity;BMP_temperature;BMP_pressure;BME280_temperature;BME280_humidity;BME280_pressure;Samples;Min_cycle;Max_cycle;Signal;HPM_P1;HPM_P2
2022/07/17 00:01:49;;;;;;;;;;;;;;;;;;5031401;28;19913;-83
2022/07/17 00:04:14;;;;;;;;;;;;;;;;;;5028240;28;19940;-87
2022/07/17 00:06:39;;;;;;;;;;;;;;;;;;5024705;28;20301;-84
2022/07/17 00:09:04;;;;;;;;;;;;;;;;;;5028842;28;20311;-84
2022/07/17 00:11:30;;;;;;;;;;;;;;;;;;5024806;28;19953;-84
2022/07/17 00:13:55;;;;;;;;;;;;;;;;;;5025561;28;19917;-84
2022/07/17 00:16:20;;;;;;;;;;;;;;;;;;5024695;28;19996;-84
2022/07/17 00:18:45;;;;;;;;;;;;;;;;;;5022779;28;20016;-84
2022/07/17 00:21:10;;;;;;;;;;;;;;;;;;5024127;28;20371;-84
2022/07/17 00:23:36;;;;;;;;;;;;;;;;;;5023000;28;19929;-84
2022/07/17 00:26:01;;;;;;;;;;;;;;;;;;5022036;28;19964;-84
2022/07/17 00:28:26;;;;;;;;;;;;;;;;;;5029693;28;19943;-84
2022/07/17 00:30:51;;;;;;;;;;;;;;;;;;5028645;28;19917;-84
2022/07/17 00:33:16;;;;;;;;;;;;;;;;;;5031948;28;19917;-84
2022/07/17 00:35:42;;;;;;;;;;;;;;;;;;5030097;28;20128;-84
2022/07/17 00:38:07;;;;;;;;;;;;;;;;;;5032190;28;19956;-84
2022/07/17 00:40:32;;;;;;;;;;;;;;;;;;5028888;28;19929;-84
2022/07/17 00:42:57;;;;;;;;;;;;;;;;;;5029795;28;19964;-85
2022/07/17 00:45:24;;;;;;;;;;;;;;;;;;5025672;28;19921;-84
2022/07/17 00:47:49;;;;;;;;;;;;;;;;;;5006305;28;20412;-84
2022/07/17 00:50:14;;;;;;;;;;;;;;;;;;5025377;28;19913;-84
2022/07/17 00:52:40;;;;;;;;;;;;;;;;;;5024218;28;20362;-84
2022/07/17 00:55:05;;;;;;;;;;;;;;;;;;5027372;28;19925;-84
2022/07/17 00:57:30;;;;;;;;;;;;;;;;;;5032100;28;19924;-84
2022/07/17 00:59:55;;;;;;;;;;;;;;;;;;5036155;28;19940;-85
2022/07/17 01:02:20;;;;;;;;;;;;;;;;;;5033103;28;20371;-84
2022/07/17 01:04:45;;;;;;;;;;;;;;;;;;5037791;28;19912;-84
2022/07/17 01:07:11;;;;;;;;;;;;;;;;;;5032018;28;20222;-84
2022/07/17 01:09:36;;;;;;;;;;;;;;;;;;5034005;28;20267;-84
2022/07/17 01:12:01;;;;;;;;;;;;;;;;;;5031498;28;19921;-84
2022/07/17 01:14:27;;;;;;;;;;;;;;;;;;5035952;28;19920;-84
2022/07/17 01:16:52;;;;;;;;;;;;;;;;;;5035760;28;20314;-84
2022/07/17 01:19:17;;;;;;;;;;;;;;;;;;5027287;28;20456;-84
2022/07/17 01:21:42;;;;;;;;;;;;;;;;;;5023440;28;21257;-84
2022/07/17 01:24:08;;;;;;;;;;;;;;;;;;5022174;28;19920;-84
2022/07/17 01:26:33;;;;;;;;;;;;;;;;;;5022567;28;19990;-84
2022/07/17 01:28:58;;;;;;;;;;;;;;;;;;5022717;28;20622;-84
2022/07/17 01:31:23;;;;;;;;;;;;;;;;;;5021445;28;19947;-84
2022/07/17 01:33:48;;;;;;;;;;;;;;;;;;5023155;28;19921;-84
2022/07/17 01:36:13;;;;;;;;;;;;;;;;;;5024715;28;20351;-84
2022/07/17 01:38:39;;;;;;;;;;;;;;;;;;5023829;28;19926;-83
2022/07/17 01:41:04;;;;;;;;;;;;;;;;;;5034285;28;20267;-84
2022/07/17 01:43:29;;;;;;;;;;;;;;;;;;5029334;28;20213;-84
2022/07/17 01:45:54;;;;;;;;;;;;;;;;;;5033342;28;19920;-84
2022/07/17 01:48:19;;;;;;;;;;;;;;;;;;5028029;28;20375;-84
2022/07/17 01:50:44;;;;;;;;;;;;;;;;;;5033113;28;19967;-84
2022/07/17 01:53:10;;;;;;;;;;;;;;;;;;5025059;28;19952;-84
2022/07/17 01:55:35;;;;;;;;;;;;;;;;;;5028500;28;19917;-84
2022/07/17 01:58:00;;;;;;;;;;;;;;;;;;5031017;28;19970;-84
2022/07/17 02:00:26;;;;;;;;;;;;;;;;;;5034436;28;20429;-84
2022/07/17 02:02:51;;;;;;;;;;;;;;;;;;5031714;28;20012;-84
2022/07/17 02:05:16;;;;;;;;;;;;;;;;;;5030481;28;20366;-84
2022/07/17 02:07:43;;;;;;;;;;;;;;;;;;5031802;28;19960;-84
2022/07/17 02:10:08;;;;;;;;;;;;;;;;;;5024709;28;19917;-84
2022/07/17 02:12:33;;;;;;;;;;;;;;;;;;5032187;28;19916;-84
2022/07/17 02:14:58;;;;;;;;;;;;;;;;;;5025068;28;20378;-84
2022/07/17 02:17:23;;;;;;;;;;;;;;;;;;5012675;28;19965;-84
2022/07/17 02:19:48;;;;;;;;;;;;;;;;;;5011069;28;19924;-84
2022/07/17 02:22:14;;;;;;;;;;;;;;;;;;5025318;28;20397;-84
2022/07/17 02:24:39;;;;;;;;;;;;;;;;;;5031850;28;19917;-84
2022/07/17 02:27:04;;;;;;;;;;;;;;;;;;5036326;28;19917;-84
2022/07/17 02:29:29;;;;;;;;;;;;;;;;;;5024445;28;19917;-85
2022/07/17 02:31:54;;;;;;;;;;;;;;;;;;5029398;28;20043;-84
2022/07/17 02:34:20;;;;;;;;;;;;;;;;;;5028847;28;19917;-84
2022/07/17 02:36:48;;;;;;;;;;;;;;;;;;5031280;28;20008;-84
2022/07/17 02:39:13;;;;;;;;;;;;;;;;;;5022137;28;20323;-84
2022/07/17 02:41:38;;;;;;;;;;;;;;;;;;5007428;28;20043;-84
2022/07/17 02:44:03;;;;;;;;;;;;;;;;;;5031398;28;19924;-85
2022/07/17 02:46:28;;;;;;;;;;;;;;;;;;5027897;28;19963;-84
2022/07/17 02:48:53;;;;;;;;;;;;;;;;;;5026185;28;20330;-84
2022/07/17 02:51:19;;;;;;;;;;;;;;;;;;5031823;28;19913;-85
2022/07/17 02:53:44;;;;;;;;;;;;;;;;;;5027879;28;19912;-84
2022/07/17 02:56:09;;;;;;;;;;;;;;;;;;5025207;28;19913;-85
2022/07/17 02:58:34;;;;;;;;;;;;;;;;;;5021685;28;19913;-84
2022/07/17 03:01:02;;;;;;;;;;;;;;;;;;5022839;28;19941;-84
2022/07/17 03:03:28;;;;;;;;;;;;;;;;;;5027934;28;19925;-84
2022/07/17 03:05:53;;;;;;;;;;;;;;;;;;5028019;28;20294;-84
2022/07/17 03:08:20;;;;;;;;;;;;;;;;;;5024172;28;19921;-85
2022/07/17 03:10:45;;;;;;;;;;;;;;;;;;5027302;28;19917;-84
2022/07/17 03:13:11;;;;;;;;;;;;;;;;;;5026704;28;19920;-84
2022/07/17 03:15:36;;;;;;;;;;;;;;;;;;5026439;28;20457;-85
2022/07/17 03:18:01;;;;;;;;;;;;;;;;;;5027801;28;19913;-84
2022/07/17 03:20:26;;;;;;;;;;;;;;;;;;5012218;28;20011;-84
2022/07/17 03:22:51;;;;;;;;;;;;;;;;;;5016939;28;20378;-84
2022/07/17 03:25:16;;;;;;;;;;;;;;;;;;5022931;28;19913;-84
2022/07/17 03:27:42;;;;;;;;;;;;;;;;;;5028997;28;20599;-84
2022/07/17 03:30:07;;;;;;;;;;;;;;;;;;5023343;28;19913;-84
2022/07/17 03:32:32;;;;;;;;;;;;;;;;;;5027320;28;19922;-85
2022/07/17 03:34:57;;;;;;;;;;;;;;;;;;5020475;28;19941;-85
2022/07/17 03:37:22;;;;;;;;;;;;;;;;;;5024749;28;20079;-85
2022/07/17 03:39:48;;;;;;;;;;;;;;;;;;5008612;28;19959;-84
2022/07/17 03:42:13;;;;;;;;;;;;;;;;;;5029173;28;19959;-84
2022/07/17 03:44:38;;;;;;;;;;;;;;;;;;5029367;28;19913;-84
2022/07/17 03:47:03;;;;;;;;;;;;;;;;;;5030243;28;19928;-84
2022/07/17 03:49:28;;;;;;;;;;;;;;;;;;5027041;28;20040;-84
2022/07/17 03:51:54;;;;;;;;;;;;;;;;;;5026676;28;20405;-84
2022/07/17 03:54:19;;;;;;;;;;;;;;;;;;5028997;28;19920;-84
2022/07/17 03:56:44;;;;;;;;;;;;;;;;;;5029341;28;19917;-84
2022/07/17 03:59:09;;;;;;;;;;;;;;;;;;5026919;28;20429;-84
2022/07/17 04:01:34;;;;;;;;;;;;;;;;;;5026720;28;20453;-84
2022/07/17 04:04:00;;;;;;;;;;;;;;;;;;5034061;28;19932;-84
2022/07/17 04:06:25;;;;;;;;;;;;;;;;;;5029199;28;19921;-85
2022/07/17 04:08:50;;;;;;;;;;;;;;;;;;5024208;28;19917;-84
2022/07/17 04:11:15;;;;;;;;;;;;;;;;;;5024732;28;20375;-84
2022/07/17 04:13:40;;;;;;;;;;;;;;;;;;5021401;28;20012;-84
2022/07/17 04:16:05;;;;;;;;;;;;;;;;;;5027614;28;19913;-84
2022/07/17 04:18:30;;;;;;;;;;;;;;;;;;5025813;28;19924;-84
2022/07/17 04:20:56;;;;;;;;;;;;;;;;;;5030119;28;19913;-84
2022/07/17 04:23:21;;;;;;;;;;;;;;;;;;5028684;28;19921;-85
2022/07/17 04:25:46;;;;;;;;;;;;;;;;;;5026439;28;19929;-85
2022/07/17 04:28:11;;;;;;;;;;;;;;;;;;5027494;28;20351;-84
2022/07/17 04:30:36;;;;;;;;;;;;;;;;;;5024314;28;19925;-84
2022/07/17 04:33:02;;;;;;;;;;;;;;;;;;5026171;28;20389;-86
2022/07/17 04:35:27;;;;;;;;;;;;;;;;;;5030642;28;19913;-85
2022/07/17 04:37:52;;;;;;;;;;;;;;;;;;5025462;28;19914;-85
2022/07/17 04:40:17;;;;;;;;;;;;;;;;;;5031275;28;20286;-84
2022/07/17 04:42:43;;;;;;;;;;;;;;;;;;5028444;28;20148;-85
2022/07/17 04:45:08;;;;;;;;;;;;;;;;;;5026774;28;19921;-84
2022/07/17 04:47:33;;;;;;;;;;;;;;;;;;5032839;28;19921;-84
2022/07/17 04:49:58;;;;;;;;;;;;;;;;;;5035940;28;19936;-85
2022/07/17 04:52:23;;;;;;;;;;;;;;;;;;5032856;28;19989;-85
2022/07/17 04:54:49;;;;;;;;;;;;;;;;;;5034240;28;19913;-85
2022/07/17 04:57:14;;;;;;;;;;;;;;;;;;5022783;28;19919;-84
2022/07/17 04:59:39;;;;;;;;;;;;;;;;;;5036509;28;19912;-84
2022/07/17 05:02:04;;;;;;;;;;;;;;;;;;5035545;28;19965;-84
2022/07/17 05:04:29;;;;;;;;;;;;;;;;;;5029185;28;20116;-84
2022/07/17 05:06:54;;;;;;;;;;;;;;;;;;5031422;28;19992;-85
2022/07/17 05:09:20;;;;;;;;;;;;;;;;;;5025880;28;19992;-85
2022/07/17 05:11:45;;;;;;;;;;;;;;;;;;5007922;28;20417;-85
2022/07/17 05:14:10;;;;;;;;;;;;;;;;;;5030629;28;19913;-85
2022/07/17 05:16:35;;;;;;;;;;;;;;;;;;5023895;28;19937;-85
2022/07/17 05:19:01;;;;;;;;;;;;;;;;;;5034197;28;20416;-85
2022/07/17 05:21:26;;;;;;;;;;;;;;;;;;5023065;28;19921;-85
2022/07/17 05:23:54;;;;;;;;;;;;;;;;;;5027172;28;20371;-85
2022/07/17 05:26:19;;;;;;;;;;;;;;;;;;5023508;28;20384;-85
2022/07/17 05:28:44;;;;;;;;;;;;;;;;;;5028522;28;19912;-85
2022/07/17 05:31:09;;;;;;;;;;;;;;;;;;5024761;28;20410;-85
2022/07/17 05:33:34;;;;;;;;;;;;;;;;;;5028863;28;19926;-85
2022/07/17 05:36:00;;;;;;;;;;;;;;;;;;5029793;28;20509;-84
2022/07/17 05:38:25;;;;;;;;;;;;;;;;;;5025861;28;20453;-85
2022/07/17 05:40:50;;;;;;;;;;;;;;;;;;5029110;28;19917;-85
2022/07/17 05:43:15;;;;;;;;;;;;;;;;;;5023669;28;19928;-86
2022/07/17 05:45:40;;;;;;;;;;;;;;;;;;5034560;28;19939;-85
2022/07/17 05:48:06;;;;;;;;;;;;;;;;;;5029631;28;19937;-85
2022/07/17 05:50:31;;;;;;;;;;;;;;;;;;5029844;28;19925;-85
2022/07/17 05:52:57;;;;;;;;;;;;;;;;;;5026954;28;19936;-85
2022/07/17 05:55:22;;;;;;;;;;;;;;;;;;5029592;28;20310;-85
2022/07/17 05:57:47;;;;;;;;;;;;;;;;;;5032170;28;19917;-85
2022/07/17 06:00:12;;;;;;;;;;;;;;;;;;5033956;28;19944;-84
2022/07/17 06:02:37;;;;;;;;;;;;;;;;;;5031781;28;19959;-85
2022/07/17 06:05:02;;;;;;;;;;;;;;;;;;5027855;28;19913;-84
2022/07/17 06:07:28;;;;;;;;;;;;;;;;;;5041175;23;19925;-85
2022/07/17 06:09:53;;;;;;;;;;;;;;;;;;5026744;28;20289;-86
2022/07/17 06:12:18;;;;;;;;;;;;;;;;;;5029087;28;19982;-85
2022/07/17 06:14:43;;;;;;;;;;;;;;;;;;5030952;28;19916;-85
2022/07/17 06:17:08;;;;;;;;;;;;;;;;;;5023130;28;20012;-85
2022/07/17 06:19:33;;;;;;;;;;;;;;;;;;5025904;28;20039;-85
2022/07/17 06:21:59;;;;;;;;;;;;;;;;;;5028457;28;19921;-86
2022/07/17 06:24:24;;;;;;;;;;;;;;;;;;5025688;28;19917;-85
2022/07/17 06:26:50;;;;;;;;;;;;;;;;;;5026243;28;19932;-85
2022/07/17 06:29:15;;;;;;;;;;;;;;;;;;5023808;28;19913;-86
2022/07/17 06:31:41;;;;;;;;;;;;;;;;;;5026100;28;19924;-86
2022/07/17 06:34:06;;;;;;;;;;;;;;;;;;5029714;28;19925;-86
2022/07/17 06:36:31;;;;;;;;;;;;;;;;;;5030310;28;19917;-86
2022/07/17 06:38:56;;;;;;;;;;;;;;;;;;5026503;28;20425;-85
2022/07/17 06:41:21;;;;;;;;;;;;;;;;;;5030619;28;19913;-85
2022/07/17 06:43:46;;;;;;;;;;;;;;;;;;5026137;28;20564;-85
2022/07/17 06:46:12;;;;;;;;;;;;;;;;;;5028277;28;19917;-85
2022/07/17 06:48:37;;;;;;;;;;;;;;;;;;5019554;28;19916;-85
2022/07/17 06:51:02;;;;;;;;;;;;;;;;;;5019985;28;20216;-86
2022/07/17 06:53:27;;;;;;;;;;;;;;;;;;5021204;28;19920;-85
2022/07/17 06:55:52;;;;;;;;;;;;;;;;;;5027339;28;19992;-85
2022/07/17 06:58:17;;;;;;;;;;;;;;;;;;5022382;28;19924;-86
2022/07/17 07:00:43;;;;;;;;;;;;;;;;;;5024448;28;19921;-86
2022/07/17 07:03:08;;;;;;;;;;;;;;;;;;5024756;28;19937;-86
2022/07/17 07:05:33;;;;;;;;;;;;;;;;;;5023985;28;20298;-86
2022/07/17 07:07:58;;;;;;;;;;;;;;;;;;5025480;28;20381;-86
2022/07/17 07:10:23;;;;;;;;;;;;;;;;;;5027624;28;20223;-84
2022/07/17 07:12:49;;;;;;;;;;;;;;;;;;5024061;28;20421;-85
2022/07/17 07:15:14;;;;;;;;;;;;;;;;;;5022499;28;20013;-86
2022/07/17 07:17:39;;;;;;;;;;;;;;;;;;5020814;28;19917;-85
2022/07/17 07:20:04;;;;;;;;;;;;;;;;;;5026172;28;19914;-85
2022/07/17 07:22:30;;;;;;;;;;;;;;;;;;5024020;28;19976;-85
2022/07/17 07:24:55;;;;;;;;;;;;;;;;;;5025947;28;19917;-87
2022/07/17 07:27:20;;;;;;;;;;;;;;;;;;5022773;28;20003;-85
2022/07/17 07:29:45;;;;;;;;;;;;;;;;;;5024405;28;19913;-85
2022/07/17 07:32:10;;;;;;;;;;;;;;;;;;5024358;28;20379;-85
2022/07/17 07:34:36;;;;;;;;;;;;;;;;;;5022857;28;20020;-85
2022/07/17 07:37:01;;;;;;;;;;;;;;;;;;5022885;28;19927;-87
2022/07/17 07:39:26;;;;;;;;;;;;;;;;;;5021592;28;20453;-84
2022/07/17 07:41:51;;;;;;;;;;;;;;;;;;5020928;28;20088;-85
2022/07/17 07:44:17;;;;;;;;;;;;;;;;;;5021448;28;20015;-85
2022/07/17 07:46:43;;;;;;;;;;;;;;;;;;5026107;28;19928;-85
2022/07/17 07:49:08;;;;;;;;;;;;;;;;;;5023215;28;19913;-85
2022/07/17 07:51:33;;;;;;;;;;;;;;;;;;5019913;28;19955;-85
2022/07/17 07:53:58;;;;;;;;;;;;;;;;;;5026892;28;19966;-85
2022/07/17 07:56:23;;;;;;;;;;;;;;;;;;5028945;28;19913;-86
2022/07/17 07:58:49;;;;;;;;;;;;;;;;;;5021242;28;20305;-86
2022/07/17 08:01:14;;;;;;;;;;;;;;;;;;5021251;28;19920;-85
2022/07/17 08:03:39;;;;;;;;;;;;;;;;;;5019825;28;19960;-85
2022/07/17 08:06:04;;;;;;;;;;;;;;;;;;5021048;28;19913;-85
2022/07/17 08:08:29;;;;;;;;;;;;;;;;;;5016795;28;19975;-86
2022/07/17 08:10:54;;;;;;;;;;;;;;;;;;5028337;28;19921;-85
2022/07/17 08:15:59;;;;;;;;;;;;;;;;;;5028142;22;20286;-85
2022/07/17 08:18:25;;;;;;;;;;;;;;;;;;4999051;28;19918;-85
2022/07/17 08:20:50;;;;;;;;;;;;;;;;;;4993982;28;20269;-84
2022/07/17 08:23:15;;;;;;;;;;;;;;;;;;5008461;28;20024;-85
2022/07/17 08:25:41;;;;;;;;;;;;;;;;;;4996624;28;19968;-84
2022/07/17 08:28:06;;;;;;;;;;;;;;;;;;5025841;23;19952;-84
2022/07/17 08:30:34;;;;;;;;;;;;;;;;;;5027741;28;19967;-84
2022/07/17 08:32:59;;;;;;;;;;;;;;;;;;5026439;28;20032;-84
2022/07/17 08:35:24;;;;;;;;;;;;;;;;;;5026982;28;19933;-85
2022/07/17 08:37:50;;;;;;;;;;;;;;;;;;5009148;28;19916;-85
2022/07/17 08:40:15;;;;;;;;;;;;;;;;;;5022034;28;20549;-85
2022/07/17 08:42:42;;;;;;;;;;;;;;;;;;5027000;28;19917;-84
2022/07/17 08:45:07;;;;;;;;;;;;;;;;;;5020912;28;19913;-86
2022/07/17 08:47:33;;;;;;;;;;;;;;;;;;5001493;28;19913;-86
2022/07/17 08:49:58;;;;;;;;;;;;;;;;;;5023183;28;19995;-85
2022/07/17 08:52:23;;;;;;;;;;;;;;;;;;5024084;28;19925;-86
2022/07/17 08:54:48;;;;;;;;;;;;;;;;;;5024160;28;19910;-85
2022/07/17 08:57:13;;;;;;;;;;;;;;;;;;5021604;28;19917;-86
2022/07/17 08:59:39;;;;;;;;;;;;;;;;;;5024075;28;20008;-84
2022/07/17 09:02:04;;;;;;;;;;;;;;;;;;5020915;28;20298;-85
2022/07/17 09:04:29;;;;;;;;;;;;;;;;;;5024771;28;19980;-85
2022/07/17 09:06:54;;;;;;;;;;;;;;;;;;5019394;28;20551;-85
2022/07/17 09:09:20;;;;;;;;;;;;;;;;;;5027999;28;19917;-84
2022/07/17 09:11:45;;;;;;;;;;;;;;;;;;5021821;28;20111;-85
2022/07/17 09:14:10;;;;;;;;;;;;;;;;;;5025101;28;19921;-85
2022/07/17 09:16:36;;;;;;;;;;;;;;;;;;5021262;28;19913;-85
2022/07/17 09:19:01;;;;;;;;;;;;;;;;;;5027073;28;20288;-84
2022/07/17 09:21:26;;;;;;;;;;;;;;;;;;5027199;28;19913;-82
2022/07/17 09:23:51;;;;;;;;;;;;;;;;;;5027420;28;19936;-79
2022/07/17 09:26:16;;;;;;;;;;;;;;;;;;5022674;28;20425;-83
2022/07/17 09:28:42;;;;;;;;;;;;;;;;;;5025830;28;20021;-83
2022/07/17 09:31:07;;;;;;;;;;;;;;;;;;5026188;28;19921;-82
2022/07/17 09:33:32;;;;;;;;;;;;;;;;;;5024187;28;19913;-82
2022/07/17 09:35:57;;;;;;;;;;;;;;;;;;5027745;28;19913;-82
2022/07/17 09:38:22;;;;;;;;;;;;;;;;;;5032013;28;20012;-81
2022/07/17 09:43:31;;;;;;;;;;;;;;;;;;5029168;28;19960;-81
2022/07/17 09:45:57;;;;;;;;;;;;;;;;;;5032757;28;20509;-82
2022/07/17 09:48:25;;;;;;;;;;;;;;;;;;5030973;28;19924;-83
2022/07/17 09:50:50;;;;;;;;;;;;;;;;;;5021198;28;20440;-83
2022/07/17 09:53:15;;;;;;;;;;;;;;;;;;5030335;28;20381;-80
2022/07/17 09:55:40;;;;;;;;;;;;;;;;;;5024692;28;19920;-82
2022/07/17 09:58:05;;;;;;;;;;;;;;;;;;5028629;28;20032;-81
2022/07/17 10:00:31;;;;;;;;;;;;;;;;;;5033149;28;19912;-83
2022/07/17 10:02:56;;;;;;;;;;;;;;;;;;5024800;28;19917;-81
2022/07/17 10:05:24;;;;;;;;;;;;;;;;;;5027717;28;20978;-82
2022/07/17 10:07:49;;;;;;;;;;;;;;;;;;5021385;28;20051;-82
2022/07/17 10:10:14;;;;;;;;;;;;;;;;;;5027977;28;20020;-82
2022/07/17 10:12:39;;;;;;;;;;;;;;;;;;5027316;28;19914;-82
2022/07/17 10:15:05;;;;;;;;;;;;;;;;;;5026359;28;20701;-81
2022/07/17 10:17:30;;;;;;;;;;;;;;;;;;5027464;28;19921;-82
2022/07/17 10:19:55;;;;;;;;;;;;;;;;;;5024567;28;19949;-81
2022/07/17 10:22:20;;;;;;;;;;;;;;;;;;5028083;28;20859;-82
2022/07/17 10:24:45;;;;;;;;;;;;;;;;;;5009166;28;20084;-82
2022/07/17 10:27:10;;;;;;;;;;;;;;;;;;5030628;28;19925;-82
2022/07/17 10:29:38;;;;;;;;;;;;;;;;;;5025434;28;20166;-82
2022/07/17 10:32:03;;;;;;;;;;;;;;;;;;5024479;28;19917;-81
2022/07/17 10:34:28;;;;;;;;;;;;;;;;;;5024360;28;20444;-82
2022/07/17 10:36:54;;;;;;;;;;;;;;;;;;5022073;28;19925;-82
2022/07/17 10:39:20;;;;;;;;;;;;;;;;;;5005717;28;19921;-82
2022/07/17 10:41:45;;;;;;;;;;;;;;;;;;5030968;28;19913;-83
2022/07/17 10:44:10;;;;;;;;;;;;;;;;;;5029241;28;21132;-82
2022/07/17 10:46:36;;;;;;;;;;;;;;;;;;5032713;28;19968;-83
2022/07/17 10:49:03;;;;;;;;;;;;;;;;;;5023808;28;19921;-82
2022/07/17 10:51:37;;;;;;;;;;;;;;;;;;5024774;28;19919;-83
2022/07/17 10:54:03;;;;;;;;;;;;;;;;;;5027186;28;20271;-83
2022/07/17 10:56:31;;;;;;;;;;;;;;;;;;5023053;28;19920;-84
2022/07/17 11:03:59;;;;;;;;;;;;;;;;;;5023252;28;20444;-85
2022/07/17 11:06:24;;;;;;;;;;;;;;;;;;5022092;28;19970;-86
2022/07/17 11:08:49;;;;;;;;;;;;;;;;;;5016543;28;19924;-84
2022/07/17 11:11:14;;;;;;;;;;;;;;;;;;5019861;28;20051;-83
2022/07/17 11:13:40;;;;;;;;;;;;;;;;;;5020873;28;19941;-84
2022/07/17 11:16:05;;;;;;;;;;;;;;;;;;5017424;28;20012;-84
2022/07/17 11:18:30;;;;;;;;;;;;;;;;;;5022470;28;20299;-84
2022/07/17 11:20:55;;;;;;;;;;;;;;;;;;5016700;28;19972;-84
2022/07/17 11:23:20;;;;;;;;;;;;;;;;;;5018728;28;19925;-85
2022/07/17 11:25:45;;;;;;;;;;;;;;;;;;5020216;28;20060;-83
2022/07/17 11:28:11;;;;;;;;;;;;;;;;;;5021557;28;19920;-83
2022/07/17 11:30:36;;;;;;;;;;;;;;;;;;5018843;28;19960;-84
2022/07/17 11:33:03;;;;;;;;;;;;;;;;;;5016910;28;20306;-84
2022/07/17 11:35:28;;;;;;;;;;;;;;;;;;5019227;28;20026;-85
2022/07/17 11:37:53;;;;;;;;;;;;;;;;;;5017623;28;19960;-85
2022/07/17 11:40:18;;;;;;;;;;;;;;;;;;5017547;28;19917;-84
2022/07/17 11:42:44;;;;;;;;;;;;;;;;;;5020723;28;20306;-84
2022/07/17 11:45:09;;;;;;;;;;;;;;;;;;5014826;28;19913;-84
2022/07/17 11:47:34;;;;;;;;;;;;;;;;;;5018502;28;19922;-85
2022/07/17 11:49:59;;;;;;;;;;;;;;;;;;5022109;28;20011;-85
2022/07/17 11:52:24;;;;;;;;;;;;;;;;;;5021419;28;19917;-84
2022/07/17 11:54:49;;;;;;;;;;;;;;;;;;5016390;28;19973;-85
2022/07/17 11:57:15;;;;;;;;;;;;;;;;;;5020368;28;20449;-84
2022/07/17 11:59:40;;;;;;;;;;;;;;;;;;5018657;28;19975;-84
2022/07/17 12:02:05;;;;;;;;;;;;;;;;;;5020516;28;20014;-85
2022/07/17 12:04:30;;;;;;;;;;;;;;;;;;5017359;28;20313;-83
2022/07/17 12:06:55;;;;;;;;;;;;;;;;;;5019795;28;19925;-83
2022/07/17 12:09:20;;;;;;;;;;;;;;;;;;5001105;28;19943;-85
2022/07/17 12:11:46;;;;;;;;;;;;;;;;;;5023111;28;19917;-84
2022/07/17 12:14:11;;;;;;;;;;;;;;;;;;5025571;28;19959;-84
2022/07/17 12:16:36;;;;;;;;;;;;;;;;;;5026882;28;20008;-84
2022/07/17 12:19:03;;;;;;;;;;;;;;;;;;5019069;28;19920;-85
2022/07/17 12:21:28;;;;;;;;;;;;;;;;;;5022542;28;19921;-85
2022/07/17 12:23:53;;;;;;;;;;;;;;;;;;5020473;28;20366;-85
2022/07/17 12:26:19;;;;;;;;;;;;;;;;;;5017935;28;19917;-84
2022/07/17 12:28:44;;;;;;;;;;;;;;;;;;5021146;28;20401;-84
2022/07/17 12:31:10;;;;;;;;;;;;;;;;;;5015864;28;20366;-84
2022/07/17 12:33:35;;;;;;;;;;;;;;;;;;5023378;28;19913;-85
2022/07/17 12:36:00;;;;;;;;;;;;;;;;;;5017186;28;20361;-84
2022/07/17 12:38:25;;;;;;;;;;;;;;;;;;5022067;28;19917;-85
2022/07/17 12:40:50;;;;;;;;;;;;;;;;;;5017465;28;19971;-83
2022/07/17 12:43:15;;;;;;;;;;;;;;;;;;5020078;28;20456;-84
2022/07/17 12:45:41;;;;;;;;;;;;;;;;;;5023346;28;19917;-84
2022/07/17 12:48:06;;;;;;;;;;;;;;;;;;5019807;28;19952;-85
2022/07/17 12:50:31;;;;;;;;;;;;;;;;;;5020436;28;20277;-84
2022/07/17 12:52:56;;;;;;;;;;;;;;;;;;5023277;28;19918;-84
2022/07/17 12:55:22;;;;;;;;;;;;;;;;;;5018148;28;19912;-85
2022/07/17 12:57:47;;;;;;;;;;;;;;;;;;5022168;28;19913;-84
2022/07/17 13:00:12;;;;;;;;;;;;;;;;;;5023037;28;19916;-84
2022/07/17 13:02:37;;;;;;;;;;;;;;;;;;5021122;28;19921;-85
2022/07/17 13:05:02;;;;;;;;;;;;;;;;;;5019085;28;20553;-85
2022/07/17 13:07:28;;;;;;;;;;;;;;;;;;5022607;28;19940;-84
2022/07/17 13:09:53;;;;;;;;;;;;;;;;;;5021359;28;19921;-85
2022/07/17 13:12:18;;;;;;;;;;;;;;;;;;5005719;28;20338;-85
2022/07/17 13:14:43;;;;;;;;;;;;;;;;;;5021695;28;20011;-86
2022/07/17 13:17:08;;;;;;;;;;;;;;;;;;5013250;28;20303;-86
2022/07/17 13:19:33;;;;;;;;;;;;;;;;;;5017997;28;20013;-85
2022/07/17 13:21:59;;;;;;;;;;;;;;;;;;5017089;28;20378;-85
2022/07/17 13:24:24;;;;;;;;;;;;;;;;;;5022717;28;19921;-85
2022/07/17 13:26:49;;;;;;;;;;;;;;;;;;5026060;28;19913;-85
2022/07/17 13:29:15;;;;;;;;;;;;;;;;;;5019837;28;19923;-85
2022/07/17 13:31:40;;;;;;;;;;;;;;;;;;5020862;28;20395;-85
2022/07/17 13:34:05;;;;;;;;;;;;;;;;;;5021567;28;19956;-85
2022/07/17 13:36:30;;;;;;;;;;;;;;;;;;5018446;28;20036;-86
2022/07/17 13:38:55;;;;;;;;;;;;;;;;;;5021302;28;19928;-85
2022/07/17 13:41:22;;;;;;;;;;;;;;;;;;5027149;28;19913;-86
2022/07/17 13:43:47;;;;;;;;;;;;;;;;;;5022513;28;19924;-85
2022/07/17 13:46:12;;;;;;;;;;;;;;;;;;5021950;28;19913;-85
2022/07/17 13:48:37;;;;;;;;;;;;;;;;;;5017753;28;20430;-84
2022/07/17 13:51:03;;;;;;;;;;;;;;;;;;5018042;28;19933;-82
2022/07/17 13:53:29;;;;;;;;;;;;;;;;;;5025095;28;20368;-82
2022/07/17 13:55:54;;;;;;;;;;;;;;;;;;5026407;28;19920;-83
2022/07/17 13:58:19;;;;;;;;;;;;;;;;;;5023013;28;19913;-82
2022/07/17 14:00:45;;;;;;;;;;;;;;;;;;5027690;28;19920;-82
2022/07/17 14:03:22;;;;;;;;;;;;;;;;;;5005818;28;19918;-83
2022/07/17 14:11:34;;;;;;;;;;;;;;;;;;5035797;28;19937;-82
2022/07/17 14:14:00;;;;;;;;;;;;;;;;;;5009946;28;19928;-82
2022/07/17 14:16:26;;;;;;;;;;;;;;;;;;5029888;28;20307;-83
2022/07/17 14:19:10;;;;;;;;;;;;;;;;;;5012735;28;19913;-83
2022/07/17 14:21:36;;;;;;;;;;;;;;;;;;5030461;28;19909;-83
2022/07/17 14:24:01;;;;;;;;;;;;;;;;;;5035229;28;19917;-83
2022/07/17 14:26:26;;;;;;;;;;;;;;;;;;5028820;28;19913;-83
2022/07/17 14:28:51;;;;;;;;;;;;;;;;;;5031573;28;19913;-82
2022/07/17 14:31:16;;;;;;;;;;;;;;;;;;5031196;28;20961;-84
2022/07/17 14:33:42;;;;;;;;;;;;;;;;;;5019741;28;19913;-83
2022/07/17 14:36:07;;;;;;;;;;;;;;;;;;5028810;28;20507;-83
2022/07/17 14:38:32;;;;;;;;;;;;;;;;;;5033049;28;19913;-84
2022/07/17 14:40:58;;;;;;;;;;;;;;;;;;5032882;28;20738;-83
2022/07/17 14:43:23;;;;;;;;;;;;;;;;;;5018686;28;19917;-84
2022/07/17 14:45:48;;;;;;;;;;;;;;;;;;5032554;28;20417;-84
2022/07/17 14:48:13;;;;;;;;;;;;;;;;;;5016522;28;19960;-84
2022/07/17 14:50:38;;;;;;;;;;;;;;;;;;5030882;28;19948;-84
2022/07/17 14:53:03;;;;;;;;;;;;;;;;;;5031627;28;19924;-84
2022/07/17 14:55:29;;;;;;;;;;;;;;;;;;5029121;28;20011;-83
2022/07/17 14:57:54;;;;;;;;;;;;;;;;;;5032435;28;20298;-83
2022/07/17 15:00:19;;;;;;;;;;;;;;;;;;5035453;28;19912;-84
2022/07/17 15:02:44;;;;;;;;;;;;;;;;;;5033334;28;20192;-83
2022/07/17 15:05:09;;;;;;;;;;;;;;;;;;5037364;28;19920;-83
2022/07/17 15:07:34;;;;;;;;;;;;;;;;;;5024454;28;19940;-82
2022/07/17 15:10:00;;;;;;;;;;;;;;;;;;5031964;28;20391;-83
2022/07/17 15:12:25;;;;;;;;;;;;;;;;;;5033508;28;19916;-82
2022/07/17 15:14:50;;;;;;;;;;;;;;;;;;5035969;28;19913;-82
2022/07/17 15:17:15;;;;;;;;;;;;;;;;;;5009235;28;20011;-82
2022/07/17 15:19:40;;;;;;;;;;;;;;;;;;5024470;28;19913;-83
2022/07/17 15:22:06;;;;;;;;;;;;;;;;;;5031361;28;19920;-83
2022/07/17 15:24:31;;;;;;;;;;;;;;;;;;5035057;28;20352;-83
2022/07/17 15:26:56;;;;;;;;;;;;;;;;;;5030299;28;19921;-83
2022/07/17 15:29:21;;;;;;;;;;;;;;;;;;5030376;28;19913;-82
2022/07/17 15:31:46;;;;;;;;;;;;;;;;;;5032079;28;20321;-82
2022/07/17 15:34:12;;;;;;;;;;;;;;;;;;5033006;28;20012;-80
2022/07/17 15:36:37;;;;;;;;;;;;;;;;;;5029980;28;19913;-82
2022/07/17 15:39:03;;;;;;;;;;;;;;;;;;5010193;28;20378;-82
2022/07/17 15:41:30;;;;;;;;;;;;;;;;;;5029642;28;20125;-82
2022/07/17 15:43:55;;;;;;;;;;;;;;;;;;5033068;28;19917;-81
2022/07/17 15:46:21;;;;;;;;;;;;;;;;;;5031342;28;20389;-81
2022/07/17 15:48:46;;;;;;;;;;;;;;;;;;5034039;28;19913;-83
2022/07/17 15:51:11;;;;;;;;;;;;;;;;;;5029916;28;19913;-81
2022/07/17 15:53:36;;;;;;;;;;;;;;;;;;5033200;28;19917;-81
2022/07/17 15:56:01;;;;;;;;;;;;;;;;;;5035128;28;19913;-83
2022/07/17 15:58:26;;;;;;;;;;;;;;;;;;5015282;28;19920;-82
2022/07/17 16:00:52;;;;;;;;;;;;;;;;;;5030856;28;19913;-82
2022/07/17 16:03:18;;;;;;;;;;;;;;;;;;5028832;28;19924;-82
2022/07/17 16:05:43;;;;;;;;;;;;;;;;;;5030932;28;19909;-81
2022/07/17 16:08:08;;;;;;;;;;;;;;;;;;5032302;28;20003;-81
2022/07/17 16:10:33;;;;;;;;;;;;;;;;;;5030158;28;19917;-81
2022/07/17 16:12:58;;;;;;;;;;;;;;;;;;5030227;28;19936;-80
2022/07/17 16:15:23;;;;;;;;;;;;;;;;;;5037874;28;20358;-82
2022/07/17 16:17:49;;;;;;;;;;;;;;;;;;5028487;28;19959;-82
2022/07/17 16:20:14;;;;;;;;;;;;;;;;;;5027503;28;19987;-83
2022/07/17 16:22:39;;;;;;;;;;;;;;;;;;5030151;28;20509;-82
2022/07/17 16:25:04;;;;;;;;;;;;;;;;;;5035853;28;19917;-82
2022/07/17 16:27:30;;;;;;;;;;;;;;;;;;5033141;28;19913;-81
2022/07/17 16:29:56;;;;;;;;;;;;;;;;;;5029364;28;19913;-81
2022/07/17 16:32:21;;;;;;;;;;;;;;;;;;5034957;28;20366;-82
2022/07/17 16:34:46;;;;;;;;;;;;;;;;;;5028437;28;19924;-82
2022/07/17 16:37:11;;;;;;;;;;;;;;;;;;5030839;28;20008;-81
2022/07/17 16:39:36;;;;;;;;;;;;;;;;;;5029438;28;20514;-82
2022/07/17 16:42:02;;;;;;;;;;;;;;;;;;5034892;28;20285;-83
2022/07/17 16:44:27;;;;;;;;;;;;;;;;;;5030245;28;20060;-84
2022/07/17 16:46:52;;;;;;;;;;;;;;;;;;5025774;28;19913;-84
2022/07/17 16:49:19;;;;;;;;;;;;;;;;;;5027755;28;19914;-85